sensor_id;sensor_type;location;lat;lon;timestamp;pressure;altitude;pressure_sealevel;temperature;humidity
9738;BME280;4908;47.446;13.900;2023-10-31T00:01:07;91072.38;;;15.34;100.00
9738;BME280;4908;47.446;13.900;2023-10-31T00:03:36;91100.84;;;15.25;100.00
9738;BME280;4908;47.446;13.900;2023-10-31T00:06:03;91097.25;;;15.10;100.00
9738;BME280;4908;47.446;13.900;2023-10-31T00:08:30;91106.41;;;15.13;100.00
9738;BME280;4908;47.446;13.900;2023-10-31T00:10:57;91094.84;;;14.94;100.00
9738;BME280;4908;47.446;13.900;2023-10-31T00:13:24;91102.34;;;14.72;100.00
9738;BME280;4908;47.446;13.900;2023-10-31T00:15:51;91090.03;;;14.53;100.00
9738;BME280;4908;47.446;13.900;2023-10-31T00:18:18;91115.28;;;14.47;100.00
9738;BME280;4908;47.446;13.900;2023-10-31T00:20:47;91122.91;;;14.48;100.00
9738;BME280;4908;47.446;13.900;2023-10-31T00:23:15;91112.19;;;14.75;100.00
9738;BME280;4908;47.446;13.900;2023-10-31T00:25:42;91118.91;;;14.62;100.00
9738;BME280;4908;47.446;13.900;2023-10-31T00:28:09;91127.75;;;14.62;100.00
9738;BME280;4908;47.446;13.900;2023-10-31T00:30:36;91125.38;;;14.64;100.00
9738;BME280;4908;47.446;13.900;2023-10-31T00:33:03;91134.91;;;14.47;100.00
9738;BME280;4908;47.446;13.900;2023-10-31T00:35:30;91136.50;;;14.35;100.00
9738;BME280;4908;47.446;13.900;2023-10-31T00:37:58;91131.75;;;14.49;100.00
9738;BME280;4908;47.446;13.900;2023-10-31T00:40:26;91130.66;;;14.28;100.00
9738;BME280;4908;47.446;13.900;2023-10-31T00:42:53;91141.28;;;14.31;100.00
9738;BME280;4908;47.446;13.900;2023-10-31T00:45:21;91164.44;;;14.29;100.00
9738;BME280;4908;47.446;13.900;2023-10-31T00:47:48;91165.38;;;14.35;100.00
9738;BME280;4908;47.446;13.900;2023-10-31T00:50:15;91163.69;;;14.28;100.00
9738;BME280;4908;47.446;13.900;2023-10-31T00:52:42;91178.09;;;14.13;100.00
9738;BME280;4908;47.446;13.900;2023-10-31T00:55:10;91180.44;;;14.02;100.00
9738;BME280;4908;47.446;13.900;2023-10-31T00:57:38;91178.84;;;13.83;100.00
9738;BME280;4908;47.446;13.900;2023-10-31T01:00:06;91187.53;;;13.87;100.00
9738;BME280;4908;47.446;13.900;2023-10-31T01:02:34;91179.03;;;13.67;100.00
9738;BME280;4908;47.446;13.900;2023-10-31T01:05:01;91184.41;;;13.67;100.00
9738;BME280;4908;47.446;13.900;2023-10-31T01:07:28;91192.03;;;13.46;100.00
9738;BME280;4908;47.446;13.900;2023-10-31T01:09:55;91190.81;;;13.38;100.00
9738;BME280;4908;47.446;13.900;2023-10-31T01:12:23;91200.47;;;13.36;100.00
9738;BME280;4908;47.446;13.900;2023-10-31T01:14:51;91210.03;;;13.15;100.00
9738;BME280;4908;47.446;13.900;2023-10-31T01:17:18;91210.22;;;13.08;100.00
9738;BME280;4908;47.446;13.900;2023-10-31T01:19:45;91215.16;;;13.22;100.00
9738;BME280;4908;47.446;13.900;2023-10-31T01:22:12;91217.75;;;13.01;100.00
9738;BME280;4908;47.446;13.900;2023-10-31T01:24:39;91223.34;;;13.06;100.00
9738;BME280;4908;47.446;13.900;2023-10-31T01:27:06;91224.31;;;13.12;100.00
9738;BME280;4908;47.446;13.900;2023-10-31T01:29:35;91223.25;;;12.97;100.00
9738;BME280;4908;47.446;13.900;2023-10-31T01:32:02;91221.09;;;12.92;100.00
9738;BME280;4908;47.446;13.900;2023-10-31T01:34:29;91232.91;;;12.95;100.00
9738;BME280;4908;47.446;13.900;2023-10-31T01:36:56;91217.16;;;12.84;100.00
9738;BME280;4908;47.446;13.900;2023-10-31T01:39:24;91223.94;;;12.76;100.00
9738;BME280;4908;47.446;13.900;2023-10-31T01:41:51;91233.06;;;12.66;100.00
9738;BME280;4908;47.446;13.900;2023-10-31T01:44:20;91233.91;;;12.63;100.00
9738;BME280;4908;47.446;13.900;2023-10-31T01:46:48;91221.78;;;12.58;100.00
9738;BME280;4908;47.446;13.900;2023-10-31T01:49:16;91201.59;;;12.54;100.00
9738;BME280;4908;47.446;13.900;2023-10-31T01:51:44;91164.97;;;12.60;100.00
9738;BME280;4908;47.446;13.900;2023-10-31T01:54:12;91153.16;;;12.57;100.00
9738;BME280;4908;47.446;13.900;2023-10-31T01:56:41;91173.66;;;12.51;100.00
9738;BME280;4908;47.446;13.900;2023-10-31T01:59:08;91183.03;;;12.47;100.00
9738;BME280;4908;47.446;13.900;2023-10-31T02:01:38;91180.22;;;12.38;100.00
9738;BME280;4908;47.446;13.900;2023-10-31T02:04:07;91196.13;;;12.32;100.00
9738;BME280;4908;47.446;13.900;2023-10-31T02:06:34;91206.66;;;12.27;100.00
9738;BME280;4908;47.446;13.900;2023-10-31T02:09:01;91202.16;;;12.24;100.00
9738;BME280;4908;47.446;13.900;2023-10-31T02:11:28;91190.84;;;12.16;100.00
9738;BME280;4908;47.446;13.900;2023-10-31T02:13:56;91203.97;;;12.14;100.00
9738;BME280;4908;47.446;13.900;2023-10-31T02:16:23;91204.38;;;12.13;100.00
9738;BME280;4908;47.446;13.900;2023-10-31T02:18:51;91217.41;;;12.14;100.00
9738;BME280;4908;47.446;13.900;2023-10-31T02:21:20;91225.34;;;12.18;100.00
9738;BME280;4908;47.446;13.900;2023-10-31T02:23:57;91225.00;;;12.28;100.00
9738;BME280;4908;47.446;13.900;2023-10-31T02:26:28;91210.94;;;12.12;100.00
9738;BME280;4908;47.446;13.900;2023-10-31T02:28:55;91202.53;;;11.85;100.00
9738;BME280;4908;47.446;13.900;2023-10-31T02:31:23;91219.06;;;11.96;100.00
9738;BME280;4908;47.446;13.900;2023-10-31T02:33:50;91211.34;;;11.98;100.00
9738;BME280;4908;47.446;13.900;2023-10-31T02:36:18;91216.72;;;11.98;100.00
9738;BME280;4908;47.446;13.900;2023-10-31T02:38:45;91226.59;;;12.01;100.00
9738;BME280;4908;47.446;13.900;2023-10-31T02:41:14;91226.06;;;12.06;100.00
9738;BME280;4908;47.446;13.900;2023-10-31T02:43:41;91219.81;;;11.96;100.00
9738;BME280;4908;47.446;13.900;2023-10-31T02:46:09;91233.66;;;11.95;100.00
9738;BME280;4908;47.446;13.900;2023-10-31T02:48:37;91237.34;;;12.01;100.00
9738;BME280;4908;47.446;13.900;2023-10-31T02:51:05;91238.56;;;11.84;100.00
9738;BME280;4908;47.446;13.900;2023-10-31T02:53:33;91248.84;;;11.73;100.00
9738;BME280;4908;47.446;13.900;2023-10-31T02:56:01;91248.84;;;11.73;100.00
9738;BME280;4908;47.446;13.900;2023-10-31T02:58:29;91239.81;;;11.66;100.00
9738;BME280;4908;47.446;13.900;2023-10-31T03:00:57;91242.72;;;11.72;100.00
9738;BME280;4908;47.446;13.900;2023-10-31T03:03:24;91244.03;;;11.51;100.00
9738;BME280;4908;47.446;13.900;2023-10-31T03:05:51;91247.41;;;11.39;100.00
9738;BME280;4908;47.446;13.900;2023-10-31T03:08:18;91245.25;;;11.34;100.00
9738;BME280;4908;47.446;13.900;2023-10-31T03:10:48;91236.13;;;11.32;100.00
9738;BME280;4908;47.446;13.900;2023-10-31T03:13:17;91243.44;;;11.15;100.00
9738;BME280;4908;47.446;13.900;2023-10-31T03:15:47;91252.84;;;11.07;100.00
9738;BME280;4908;47.446;13.900;2023-10-31T03:18:14;91239.78;;;11.09;100.00
9738;BME280;4908;47.446;13.900;2023-10-31T03:20:43;91248.13;;;11.11;100.00
9738;BME280;4908;47.446;13.900;2023-10-31T03:23:11;91272.59;;;11.13;100.00
9738;BME280;4908;47.446;13.900;2023-10-31T03:25:38;91271.97;;;11.06;100.00
9738;BME280;4908;47.446;13.900;2023-10-31T03:28:17;91267.72;;;10.92;100.00
9738;BME280;4908;47.446;13.900;2023-10-31T03:30:47;91268.47;;;10.93;100.00
9738;BME280;4908;47.446;13.900;2023-10-31T03:33:14;91285.31;;;10.93;100.00
9738;BME280;4908;47.446;13.900;2023-10-31T03:35:42;91277.13;;;10.84;100.00
9738;BME280;4908;47.446;13.900;2023-10-31T03:38:09;91287.16;;;10.80;100.00
9738;BME280;4908;47.446;13.900;2023-10-31T03:40:36;91289.31;;;10.85;100.00
9738;BME280;4908;47.446;13.900;2023-10-31T03:43:04;91294.69;;;10.85;100.00
9738;BME280;4908;47.446;13.900;2023-10-31T03:45:31;91294.84;;;10.78;100.00
9738;BME280;4908;47.446;13.900;2023-10-31T03:48:00;91297.03;;;10.83;100.00
9738;BME280;4908;47.446;13.900;2023-10-31T03:50:27;91299.03;;;10.79;100.00
9738;BME280;4908;47.446;13.900;2023-10-31T03:52:54;91306.38;;;10.75;100.00
9738;BME280;4908;47.446;13.900;2023-10-31T03:55:22;91317.19;;;10.71;100.00
9738;BME280;4908;47.446;13.900;2023-10-31T03:57:49;91339.34;;;10.72;100.00
9738;BME280;4908;47.446;13.900;2023-10-31T04:00:17;91353.41;;;10.76;100.00
9738;BME280;4908;47.446;13.900;2023-10-31T04:02:44;91360.91;;;10.65;100.00
9738;BME280;4908;47.446;13.900;2023-10-31T04:05:13;91353.06;;;10.74;100.00
9738;BME280;4908;47.446;13.900;2023-10-31T04:07:40;91346.19;;;10.73;100.00
9738;BME280;4908;47.446;13.900;2023-10-31T04:10:08;91345.19;;;10.67;100.00
9738;BME280;4908;47.446;13.900;2023-10-31T04:12:35;91341.69;;;10.70;100.00
9738;BME280;4908;47.446;13.900;2023-10-31T04:15:03;91357.75;;;10.70;100.00
9738;BME280;4908;47.446;13.900;2023-10-31T04:17:30;91353.16;;;10.70;100.00
9738;BME280;4908;47.446;13.900;2023-10-31T04:19:57;91366.25;;;10.65;100.00
9738;BME280;4908;47.446;13.900;2023-10-31T04:22:26;91368.16;;;10.48;100.00
9738;BME280;4908;47.446;13.900;2023-10-31T04:24:53;91363.22;;;10.47;100.00
9738;BME280;4908;47.446;13.900;2023-10-31T04:27:20;91369.88;;;10.39;100.00
9738;BME280;4908;47.446;13.900;2023-10-31T04:29:48;91384.97;;;10.49;100.00
9738;BME280;4908;47.446;13.900;2023-10-31T04:32:15;91398.72;;;10.31;100.00
9738;BME280;4908;47.446;13.900;2023-10-31T04:34:42;91409.00;;;10.33;100.00
9738;BME280;4908;47.446;13.900;2023-10-31T04:37:09;91399.78;;;10.34;100.00
9738;BME280;4908;47.446;13.900;2023-10-31T04:39:38;91407.97;;;10.27;100.00
9738;BME280;4908;47.446;13.900;2023-10-31T04:42:05;91411.78;;;10.06;100.00
9738;BME280;4908;47.446;13.900;2023-10-31T04:44:32;91431.72;;;10.02;100.00
9738;BME280;4908;47.446;13.900;2023-10-31T04:46:59;91428.84;;;9.92;100.00
9738;BME280;4908;47.446;13.900;2023-10-31T04:49:27;91431.84;;;9.94;100.00
9738;BME280;4908;47.446;13.900;2023-10-31T04:51:54;91457.47;;;9.92;100.00
9738;BME280;4908;47.446;13.900;2023-10-31T04:54:21;91458.63;;;9.91;100.00
9738;BME280;4908;47.446;13.900;2023-10-31T04:56:50;91448.00;;;9.87;100.00
9738;BME280;4908;47.446;13.900;2023-10-31T04:59:17;91442.16;;;9.73;100.00
9738;BME280;4908;47.446;13.900;2023-10-31T05:01:48;91446.38;;;9.70;100.00
9738;BME280;4908;47.446;13.900;2023-10-31T05:04:16;91444.19;;;9.65;100.00
9738;BME280;4908;47.446;13.900;2023-10-31T05:06:43;91457.91;;;9.67;100.00
9738;BME280;4908;47.446;13.900;2023-10-31T05:09:11;91454.88;;;9.65;100.00
9738;BME280;4908;47.446;13.900;2023-10-31T05:11:39;91461.16;;;9.55;100.00
9738;BME280;4908;47.446;13.900;2023-10-31T05:14:09;91475.44;;;9.45;100.00
9738;BME280;4908;47.446;13.900;2023-10-31T05:16:41;91490.06;;;9.37;100.00
9738;BME280;4908;47.446;13.900;2023-10-31T05:19:08;91479.38;;;9.37;100.00
9738;BME280;4908;47.446;13.900;2023-10-31T05:21:35;91479.25;;;9.44;100.00
9738;BME280;4908;47.446;13.900;2023-10-31T05:24:03;91496.69;;;9.52;100.00
9738;BME280;4908;47.446;13.900;2023-10-31T05:26:30;91501.13;;;9.62;100.00
9738;BME280;4908;47.446;13.900;2023-10-31T05:28:57;91510.41;;;9.54;100.00
9738;BME280;4908;47.446;13.900;2023-10-31T05:31:25;91510.09;;;9.49;100.00
9738;BME280;4908;47.446;13.900;2023-10-31T05:33:53;91507.44;;;9.49;100.00
9738;BME280;4908;47.446;13.900;2023-10-31T05:36:21;91510.09;;;9.49;100.00
9738;BME280;4908;47.446;13.900;2023-10-31T05:38:48;91506.22;;;9.53;100.00
9738;BME280;4908;47.446;13.900;2023-10-31T05:41:15;91518.88;;;9.49;100.00
9738;BME280;4908;47.446;13.900;2023-10-31T05:43:42;91520.78;;;9.49;100.00
9738;BME280;4908;47.446;13.900;2023-10-31T05:46:10;91526.06;;;9.56;100.00
9738;BME280;4908;47.446;13.900;2023-10-31T05:48:40;91519.47;;;9.60;100.00
9738;BME280;4908;47.446;13.900;2023-10-31T05:51:11;91514.53;;;9.59;100.00
9738;BME280;4908;47.446;13.900;2023-10-31T05:53:39;91502.38;;;9.54;100.00
9738;BME280;4908;47.446;13.900;2023-10-31T05:56:08;91505.06;;;9.54;100.00
9738;BME280;4908;47.446;13.900;2023-10-31T05:58:36;91517.34;;;9.48;100.00
9738;BME280;4908;47.446;13.900;2023-10-31T06:01:03;91536.88;;;9.45;100.00
9738;BME280;4908;47.446;13.900;2023-10-31T06:03:31;91544.94;;;9.42;100.00
9738;BME280;4908;47.446;13.900;2023-10-31T06:05:59;91549.53;;;9.41;100.00
9738;BME280;4908;47.446;13.900;2023-10-31T06:08:26;91570.00;;;9.25;100.00
9738;BME280;4908;47.446;13.900;2023-10-31T06:10:55;91580.75;;;9.18;100.00
9738;BME280;4908;47.446;13.900;2023-10-31T06:13:22;91586.59;;;9.09;100.00
9738;BME280;4908;47.446;13.900;2023-10-31T06:15:51;91603.19;;;9.24;100.00
9738;BME280;4908;47.446;13.900;2023-10-31T06:18:18;91593.34;;;9.17;100.00
9738;BME280;4908;47.446;13.900;2023-10-31T06:20:45;91600.09;;;9.25;100.00
9738;BME280;4908;47.446;13.900;2023-10-31T06:23:13;91590.25;;;9.22;100.00
9738;BME280;4908;47.446;13.900;2023-10-31T06:25:40;91593.44;;;9.10;100.00
9738;BME280;4908;47.446;13.900;2023-10-31T06:28:07;91589.78;;;8.97;100.00
9738;BME280;4908;47.446;13.900;2023-10-31T06:30:34;91600.53;;;8.90;100.00
9738;BME280;4908;47.446;13.900;2023-10-31T06:33:02;91593.78;;;8.78;100.00
9738;BME280;4908;47.446;13.900;2023-10-31T06:35:29;91597.34;;;8.68;100.00
9738;BME280;4908;47.446;13.900;2023-10-31T06:37:56;91603.84;;;8.67;100.00
9738;BME280;4908;47.446;13.900;2023-10-31T06:40:25;91616.81;;;8.65;100.00
9738;BME280;4908;47.446;13.900;2023-10-31T06:42:52;91618.75;;;8.61;100.00
9738;BME280;4908;47.446;13.900;2023-10-31T06:45:19;91623.69;;;8.63;100.00
9738;BME280;4908;47.446;13.900;2023-10-31T06:47:46;91627.13;;;8.63;100.00
9738;BME280;4908;47.446;13.900;2023-10-31T06:50:13;91638.16;;;8.65;100.00
9738;BME280;4908;47.446;13.900;2023-10-31T06:52:41;91635.09;;;8.67;100.00
9738;BME280;4908;47.446;13.900;2023-10-31T06:55:08;91622.47;;;8.71;100.00
9738;BME280;4908;47.446;13.900;2023-10-31T06:57:36;91630.47;;;8.71;100.00
9738;BME280;4908;47.446;13.900;2023-10-31T07:00:05;91623.63;;;8.70;100.00
9738;BME280;4908;47.446;13.900;2023-10-31T07:02:34;91627.03;;;8.74;100.00
9738;BME280;4908;47.446;13.900;2023-10-31T07:05:01;91636.03;;;8.87;100.00
9738;BME280;4908;47.446;13.900;2023-10-31T07:07:29;91631.94;;;8.79;100.00
9738;BME280;4908;47.446;13.900;2023-10-31T07:09:56;91635.09;;;8.67;100.00
9738;BME280;4908;47.446;13.900;2023-10-31T07:12:24;91651.97;;;8.57;100.00
9738;BME280;4908;47.446;13.900;2023-10-31T07:14:53;91647.81;;;8.52;100.00
9738;BME280;4908;47.446;13.900;2023-10-31T07:17:20;91650.66;;;8.35;100.00
9738;BME280;4908;47.446;13.900;2023-10-31T07:19:47;91643.06;;;8.30;100.00
9738;BME280;4908;47.446;13.900;2023-10-31T07:22:14;91645.38;;;8.21;100.00
9738;BME280;4908;47.446;13.900;2023-10-31T07:24:41;91662.91;;;8.22;100.00
9738;BME280;4908;47.446;13.900;2023-10-31T07:27:08;91661.75;;;8.26;100.00
9738;BME280;4908;47.446;13.900;2023-10-31T07:29:36;91679.97;;;8.35;100.00
9738;BME280;4908;47.446;13.900;2023-10-31T07:32:07;91700.84;;;8.47;100.00
9738;BME280;4908;47.446;13.900;2023-10-31T07:34:33;91704.72;;;8.39;100.00
9738;BME280;4908;47.446;13.900;2023-10-31T07:37:01;91713.59;;;8.22;100.00
9738;BME280;4908;47.446;13.900;2023-10-31T07:39:28;91717.44;;;8.13;100.00
9738;BME280;4908;47.446;13.900;2023-10-31T07:41:55;91728.59;;;7.98;100.00
9738;BME280;4908;47.446;13.900;2023-10-31T07:44:22;91735.44;;;7.95;100.00
9738;BME280;4908;47.446;13.900;2023-10-31T07:46:49;91732.47;;;7.86;100.00
9738;BME280;4908;47.446;13.900;2023-10-31T07:49:17;91742.75;;;7.84;100.00
9738;BME280;4908;47.446;13.900;2023-10-31T07:51:44;91749.59;;;7.82;100.00
9738;BME280;4908;47.446;13.900;2023-10-31T07:54:13;91756.91;;;7.67;100.00
9738;BME280;4908;47.446;13.900;2023-10-31T07:56:41;91755.38;;;7.70;100.00
9738;BME280;4908;47.446;13.900;2023-10-31T07:59:08;91758.84;;;7.63;100.00
9738;BME280;4908;47.446;13.900;2023-10-31T08:01:36;91750.84;;;7.60;100.00
9738;BME280;4908;47.446;13.900;2023-10-31T08:04:04;91747.81;;;7.61;100.00
9738;BME280;4908;47.446;13.900;2023-10-31T08:06:32;91766.03;;;7.66;100.00
9738;BME280;4908;47.446;13.900;2023-10-31T08:09:00;91771.34;;;7.70;100.00
9738;BME280;4908;47.446;13.900;2023-10-31T08:11:27;91770.19;;;7.74;100.00
9738;BME280;4908;47.446;13.900;2023-10-31T08:13:54;91788.13;;;7.60;100.00
9738;BME280;4908;47.446;13.900;2023-10-31T08:16:21;91779.78;;;7.61;100.00
9738;BME280;4908;47.446;13.900;2023-10-31T08:18:48;91770.66;;;7.55;100.00
9738;BME280;4908;47.446;13.900;2023-10-31T08:21:15;91751.59;;;7.60;100.00
9738;BME280;4908;47.446;13.900;2023-10-31T08:23:44;91756.94;;;7.60;100.00
9738;BME280;4908;47.446;13.900;2023-10-31T08:26:12;91756.59;;;7.44;100.00
9738;BME280;4908;47.446;13.900;2023-10-31T08:28:39;91742.56;;;7.33;100.00
9738;BME280;4908;47.446;13.900;2023-10-31T08:31:06;91763.09;;;7.33;100.00
9738;BME280;4908;47.446;13.900;2023-10-31T08:33:33;91785.97;;;7.27;100.00
9738;BME280;4908;47.446;13.900;2023-10-31T08:36:00;91786.69;;;7.41;100.00
9738;BME280;4908;47.446;13.900;2023-10-31T08:38:27;91804.19;;;7.32;100.00
9738;BME280;4908;47.446;13.900;2023-10-31T08:40:58;91805.31;;;7.41;100.00
9738;BME280;4908;47.446;13.900;2023-10-31T08:43:26;91820.94;;;7.25;100.00
9738;BME280;4908;47.446;13.900;2023-10-31T08:45:53;91826.28;;;7.25;100.00
9738;BME280;4908;47.446;13.900;2023-10-31T08:48:20;91851.38;;;7.28;100.00
9738;BME280;4908;47.446;13.900;2023-10-31T08:50:47;91849.84;;;7.19;100.00
9738;BME280;4908;47.446;13.900;2023-10-31T08:53:14;91852.16;;;7.14;100.00
9738;BME280;4908;47.446;13.900;2023-10-31T08:55:41;91848.75;;;7.06;100.00
9738;BME280;4908;47.446;13.900;2023-10-31T08:58:11;91854.81;;;7.03;100.00
9738;BME280;4908;47.446;13.900;2023-10-31T09:00:39;91852.16;;;6.96;100.00
9738;BME280;4908;47.446;13.900;2023-10-31T09:03:06;91841.50;;;6.96;100.00
9738;BME280;4908;47.446;13.900;2023-10-31T09:05:33;91848.34;;;6.90;100.00
9738;BME280;4908;47.446;13.900;2023-10-31T09:08:00;91848.34;;;7.04;100.00
9738;BME280;4908;47.446;13.900;2023-10-31T09:10:27;91834.66;;;6.92;100.00
9738;BME280;4908;47.446;13.900;2023-10-31T09:12:54;91831.63;;;7.04;100.00
9738;BME280;4908;47.446;13.900;2023-10-31T09:15:23;91843.03;;;6.94;100.00
9738;BME280;4908;47.446;13.900;2023-10-31T09:17:50;91844.16;;;7.03;100.00
9738;BME280;4908;47.446;13.900;2023-10-31T09:20:17;91841.50;;;7.03;100.00
9738;BME280;4908;47.446;13.900;2023-10-31T09:22:44;91838.09;;;6.96;100.00
9738;BME280;4908;47.446;13.900;2023-10-31T09:25:11;91864.72;;;7.06;100.00
9738;BME280;4908;47.446;13.900;2023-10-31T09:27:40;91875.34;;;7.06;100.00
9738;BME280;4908;47.446;13.900;2023-10-31T09:30:07;91882.56;;;7.06;100.00
9738;BME280;4908;47.446;13.900;2023-10-31T09:32:36;91880.66;;;6.89;100.00
9738;BME280;4908;47.446;13.900;2023-10-31T09:35:03;91886.34;;;6.77;100.00
9738;BME280;4908;47.446;13.900;2023-10-31T09:37:31;91889.38;;;6.61;100.00
9738;BME280;4908;47.446;13.900;2023-10-31T09:39:58;91893.97;;;6.68;100.00
9738;BME280;4908;47.446;13.900;2023-10-31T09:42:25;91901.56;;;6.80;100.00
9738;BME280;4908;47.446;13.900;2023-10-31T09:44:52;91887.88;;;6.92;100.00
9738;BME280;4908;47.446;13.900;2023-10-31T09:47:20;91886.38;;;6.98;100.00
9738;BME280;4908;47.446;13.900;2023-10-31T09:49:49;91887.13;;;7.02;100.00
9738;BME280;4908;47.446;13.900;2023-10-31T09:52:17;91882.56;;;7.20;100.00
9738;BME280;4908;47.446;13.900;2023-10-31T09:54:47;91892.84;;;7.29;100.00
9738;BME280;4908;47.446;13.900;2023-10-31T09:57:16;91899.31;;;7.13;100.00
9738;BME280;4908;47.446;13.900;2023-10-31T09:59:44;91910.72;;;7.07;100.00
9738;BME280;4908;47.446;13.900;2023-10-31T10:02:11;91920.97;;;6.98;100.00
9738;BME280;4908;47.446;13.900;2023-10-31T10:04:38;91921.34;;;6.86;100.00
9738;BME280;4908;47.446;13.900;2023-10-31T10:07:07;91927.38;;;6.72;100.00
9738;BME280;4908;47.446;13.900;2023-10-31T10:09:34;91906.88;;;6.69;100.00
9738;BME280;4908;47.446;13.900;2023-10-31T10:12:01;91898.88;;;6.69;100.00
9738;BME280;4908;47.446;13.900;2023-10-31T10:14:28;91884.47;;;6.70;100.00
9738;BME280;4908;47.446;13.900;2023-10-31T10:16:57;91887.88;;;6.78;100.00
9738;BME280;4908;47.446;13.900;2023-10-31T10:19:24;91921.34;;;6.86;100.00
9738;BME280;4908;47.446;13.900;2023-10-31T10:21:52;91917.16;;;6.88;100.00
9738;BME280;4908;47.446;13.900;2023-10-31T10:24:22;91903.09;;;6.95;100.00
9738;BME280;4908;47.446;13.900;2023-10-31T10:26:50;91897.78;;;6.95;100.00
9738;BME280;4908;47.446;13.900;2023-10-31T10:29:17;91904.63;;;6.96;100.00
9738;BME280;4908;47.446;13.900;2023-10-31T10:31:44;91903.88;;;6.99;100.00
9738;BME280;4908;47.446;13.900;2023-10-31T10:34:14;91906.16;;;6.97;100.00
9738;BME280;4908;47.446;13.900;2023-10-31T10:36:46;91913.00;;;7.08;100.00
9738;BME280;4908;47.446;13.900;2023-10-31T10:39:18;91917.56;;;7.08;100.00
9738;BME280;4908;47.446;13.900;2023-10-31T10:41:52;91909.97;;;7.03;100.00
9738;BME280;4908;47.446;13.900;2023-10-31T10:44:27;91910.34;;;7.12;100.00
9738;BME280;4908;47.446;13.900;2023-10-31T10:46:56;91901.56;;;6.94;100.00
9738;BME280;4908;47.446;13.900;2023-10-31T10:49:24;91906.13;;;6.90;100.00
9738;BME280;4908;47.446;13.900;2023-10-31T10:51:53;91916.03;;;6.89;100.00
9738;BME280;4908;47.446;13.900;2023-10-31T10:54:32;91926.66;;;6.79;100.00
9738;BME280;4908;47.446;13.900;2023-10-31T10:57:09;91919.81;;;6.78;100.00
9738;BME280;4908;47.446;13.900;2023-10-31T10:59:42;91917.16;;;6.78;100.00
9738;BME280;4908;47.446;13.900;2023-10-31T11:02:11;91919.06;;;6.77;100.00
9738;BME280;4908;47.446;13.900;2023-10-31T11:04:42;91931.19;;;6.68;100.00
9738;BME280;4908;47.446;13.900;2023-10-31T11:07:09;91920.53;;;6.61;100.00
9738;BME280;4908;47.446;13.900;2023-10-31T11:09:37;91920.56;;;6.75;100.00
9738;BME280;4908;47.446;13.900;2023-10-31T11:12:07;91926.25;;;6.70;100.00
9738;BME280;4908;47.446;13.900;2023-10-31T11:14:35;91923.22;;;6.71;100.00
9738;BME280;4908;47.446;13.900;2023-10-31T11:17:31;91922.09;;;6.76;100.00
9738;BME280;4908;47.446;13.900;2023-10-31T11:20:02;91913.34;;;6.72;100.00
9738;BME280;4908;47.446;13.900;2023-10-31T11:22:37;91911.00;;;6.49;100.00
9738;BME280;4908;47.446;13.900;2023-10-31T11:25:07;91918.63;;;6.58;100.00
9738;BME280;4908;47.446;13.900;2023-10-31T11:27:36;91908.38;;;6.67;100.00
9738;BME280;4908;47.446;13.900;2023-10-31T11:30:05;91901.56;;;6.76;100.00
9738;BME280;4908;47.446;13.900;2023-10-31T11:32:33;91898.13;;;6.69;100.00
9738;BME280;4908;47.446;13.900;2023-10-31T11:35:00;91892.41;;;6.67;100.00
9738;BME280;4908;47.446;13.900;2023-10-31T11:37:32;91903.06;;;6.63;100.00
9738;BME280;4908;47.446;13.900;2023-10-31T11:40:20;91909.53;;;6.66;100.00
9738;BME280;4908;47.446;13.900;2023-10-31T11:42:50;91899.66;;;6.70;100.00
9738;BME280;4908;47.446;13.900;2023-10-31T11:45:26;91900.44;;;6.84;100.00
9738;BME280;4908;47.446;13.900;2023-10-31T11:47:54;91899.31;;;6.82;100.00
9738;BME280;4908;47.446;13.900;2023-10-31T11:50:22;91890.94;;;6.80;100.00
9738;BME280;4908;47.446;13.900;2023-10-31T11:53:03;91886.38;;;7.01;100.00
9738;BME280;4908;47.446;13.900;2023-10-31T11:55:35;91883.34;;;6.99;100.00
9738;BME280;4908;47.446;13.900;2023-10-31T11:58:18;91893.59;;;6.94;100.00
9738;BME280;4908;47.446;13.900;2023-10-31T12:00:46;91898.53;;;6.85;100.00
9738;BME280;4908;47.446;13.900;2023-10-31T12:03:15;91906.50;;;6.92;100.00
9738;BME280;4908;47.446;13.900;2023-10-31T12:05:51;91902.31;;;6.77;100.00
9738;BME280;4908;47.446;13.900;2023-10-31T12:08:25;91892.03;;;6.58;100.00
9738;BME280;4908;47.446;13.900;2023-10-31T12:10:52;91899.25;;;6.50;100.00
9738;BME280;4908;47.446;13.900;2023-10-31T12:13:21;91897.69;;;6.49;100.00
9738;BME280;4908;47.446;13.900;2023-10-31T12:15:54;91902.63;;;6.44;100.00
9738;BME280;4908;47.446;13.900;2023-10-31T12:18:21;91904.56;;;6.54;100.00
9738;BME280;4908;47.446;13.900;2023-10-31T12:20:48;91900.41;;;6.56;100.00
9738;BME280;4908;47.446;13.900;2023-10-31T12:23:15;91900.75;;;6.44;100.00
9738;BME280;4908;47.446;13.900;2023-10-31T12:25:47;91893.53;;;6.41;100.00
9738;BME280;4908;47.446;13.900;2023-10-31T12:28:17;91896.91;;;6.38;100.00
9738;BME280;4908;47.446;13.900;2023-10-31T12:30:46;91899.25;;;6.54;100.00
9738;BME280;4908;47.446;13.900;2023-10-31T12:33:14;91902.28;;;6.63;100.00
9738;BME280;4908;47.446;13.900;2023-10-31T12:35:41;91894.34;;;6.73;100.00
9738;BME280;4908;47.446;13.900;2023-10-31T12:38:10;91904.63;;;6.85;100.00
9738;BME280;4908;47.446;13.900;2023-10-31T12:40:38;91894.75;;;6.86;100.00
9738;BME280;4908;47.446;13.900;2023-10-31T12:43:06;91909.91;;;6.78;100.00
9738;BME280;4908;47.446;13.900;2023-10-31T12:45:33;91909.94;;;6.82;100.00
9738;BME280;4908;47.446;13.900;2023-10-31T12:48:02;91922.88;;;6.87;100.00
9738;BME280;4908;47.446;13.900;2023-10-31T12:50:30;91922.88;;;6.87;100.00
9738;BME280;4908;47.446;13.900;2023-10-31T12:52:58;91923.25;;;6.89;100.00
9738;BME280;4908;47.446;13.900;2023-10-31T12:55:27;91928.19;;;6.94;100.00
9738;BME280;4908;47.446;13.900;2023-10-31T12:57:54;91932.75;;;6.76;100.00
9738;BME280;4908;47.446;13.900;2023-10-31T13:00:23;91935.78;;;6.92;100.00
9738;BME280;4908;47.446;13.900;2023-10-31T13:02:59;91933.13;;;6.92;100.00
9738;BME280;4908;47.446;13.900;2023-10-31T13:05:28;91940.38;;;7.02;100.00
9738;BME280;4908;47.446;13.900;2023-10-31T13:07:56;91946.44;;;7.09;100.00
9738;BME280;4908;47.446;13.900;2023-10-31T13:10:24;91938.84;;;7.04;100.00
9738;BME280;4908;47.446;13.900;2023-10-31T13:12:52;91943.38;;;6.90;100.00